Time;durP1;ratioP1;P1;durP2;ratioP2;P2;SDS_P1;SDS_P2;PMS_P1;PMS_P2;Temp;Humidity;BMP_temperature;BMP_pressure;BME280_temperature;BME280_humidity;BME280_pressure;Samples;Min_cycle;Max_cycle;Signal;HPM_P1;HPM_P2
2024/04/15 00:01:51;;;;;;;5.93;3.53;;;21.00;90.00;;;;;;5384437;26;20402;-68
2024/04/15 00:04:16;;;;;;;4.40;3.20;;;20.90;90.10;;;;;;5385064;26;20468;-68
2024/04/15 00:06:42;;;;;;;3.87;3.37;;;20.90;90.10;;;;;;5396569;26;20237;-69
2024/04/15 00:09:07;;;;;;;6.37;4.10;;;20.90;90.10;;;;;;5383717;26;20279;-68
2024/04/15 00:11:33;;;;;;;3.90;3.50;;;20.90;90.20;;;;;;5392539;26;20265;-68
2024/04/15 00:13:58;;;;;;;4.43;3.87;;;20.90;90.20;;;;;;5387335;26;20261;-68
2024/04/15 00:16:24;;;;;;;5.50;3.70;;;20.90;90.20;;;;;;5381625;26;20244;-69
2024/04/15 00:18:49;;;;;;;3.80;3.40;;;20.80;90.30;;;;;;5392385;26;20238;-66
2024/04/15 00:21:15;;;;;;;7.80;3.10;;;20.80;90.30;;;;;;5386145;26;20245;-68
2024/04/15 00:23:40;;;;;;;5.33;3.60;;;20.80;90.40;;;;;;5396989;26;20233;-68
2024/04/15 00:26:06;;;;;;;5.57;3.40;;;20.70;90.30;;;;;;5389776;26;20350;-68
2024/04/15 00:28:32;;;;;;;8.70;4.33;;;20.70;90.30;;;;;;5392826;26;20229;-68
2024/04/15 00:30:57;;;;;;;4.00;3.30;;;20.70;90.40;;;;;;5391895;26;20229;-68
2024/04/15 00:33:23;;;;;;;4.50;3.67;;;20.70;90.50;;;;;;5389268;26;20288;-69
2024/04/15 00:35:49;;;;;;;5.80;4.13;;;20.60;90.50;;;;;;5397426;26;20345;-70
2024/04/15 00:38:15;;;;;;;5.83;3.70;;;20.60;90.40;;;;;;5395967;26;20462;-71
2024/04/15 00:40:41;;;;;;;6.10;4.13;;;20.60;90.40;;;;;;5394846;26;20246;-69
2024/04/15 00:43:10;;;;;;;5.40;4.20;;;20.60;90.30;;;;;;5393111;26;20544;-69
2024/04/15 00:45:36;;;;;;;4.20;3.80;;;20.50;90.30;;;;;;5397437;26;20526;-69
2024/04/15 00:48:04;;;;;;;4.23;3.40;;;20.50;90.20;;;;;;5388871;26;20530;-69
2024/04/15 00:50:32;;;;;;;5.23;4.13;;;20.50;90.10;;;;;;5397789;26;20475;-69
2024/04/15 00:53:01;;;;;;;5.43;4.57;;;20.40;90.10;;;;;;5395943;26;20521;-69
2024/04/15 00:55:28;;;;;;;4.40;4.00;;;20.40;90.00;;;;;;5388929;26;20925;-69
2024/04/15 00:57:54;;;;;;;4.00;3.60;;;20.40;90.10;;;;;;5393273;26;20527;-69
2024/04/15 01:00:20;;;;;;;4.30;3.87;;;20.30;90.00;;;;;;5399048;26;20511;-69
2024/04/15 01:02:46;;;;;;;3.37;2.90;;;20.30;90.20;;;;;;5395462;26;20534;-69
2024/04/15 01:05:12;;;;;;;4.60;3.00;;;20.30;90.10;;;;;;5395707;26;20519;-69
2024/04/15 01:07:38;;;;;;;8.10;3.57;;;20.20;88.60;;;;;;5396659;26;21070;-69
2024/04/15 01:10:04;;;;;;;5.00;2.83;;;20.00;87.10;;;;;;5390399;26;20229;-69
2024/04/15 01:12:30;;;;;;;4.53;3.03;;;20.00;87.90;;;;;;5393012;26;21044;-68
2024/04/15 01:14:56;;;;;;;2.97;2.57;;;19.90;88.10;;;;;;5391226;26;20463;-68
2024/04/15 01:17:22;;;;;;;3.87;2.63;;;20.00;87.90;;;;;;5391058;26;20236;-68
2024/04/15 01:19:48;;;;;;;2.83;2.50;;;19.90;88.40;;;;;;5385495;26;21063;-68
2024/04/15 01:22:23;;;;;;;6.50;3.00;;;19.90;88.80;;;;;;5394793;26;20255;-68
2024/04/15 01:24:49;;;;;;;4.43;2.70;;;19.90;88.50;;;;;;5416519;26;20252;-68
2024/04/15 01:27:18;;;;;;;4.20;2.57;;;19.80;88.50;;;;;;5398064;26;20466;-68
2024/04/15 01:29:43;;;;;;;4.37;2.77;;;19.80;88.50;;;;;;5389130;26;20463;-68
2024/04/15 01:32:09;;;;;;;2.83;2.30;;;19.70;88.00;;;;;;5388193;26;20565;-68
2024/04/15 01:34:34;;;;;;;2.80;2.33;;;19.70;87.60;;;;;;5392705;26;20314;-68
2024/04/15 01:37:00;;;;;;;5.07;2.67;;;19.60;86.60;;;;;;5382711;26;20249;-68
2024/04/15 01:39:26;;;;;;;3.20;2.40;;;19.60;85.70;;;;;;5389930;26;20233;-68
2024/04/15 01:41:51;;;;;;;3.33;2.50;;;19.50;85.90;;;;;;5386843;26;20237;-67
2024/04/15 01:44:17;;;;;;;3.30;2.73;;;19.40;86.00;;;;;;5393674;26;20221;-67
2024/04/15 01:46:43;;;;;;;4.23;2.40;;;19.40;85.80;;;;;;5390162;26;20297;-68
2024/04/15 01:49:08;;;;;;;3.57;2.40;;;19.40;85.70;;;;;;5386207;26;20268;-67
2024/04/15 01:51:34;;;;;;;5.20;2.87;;;19.40;85.70;;;;;;5391831;26;20280;-68
2024/04/15 01:53:59;;;;;;;2.90;2.37;;;19.40;85.90;;;;;;5387628;26;20312;-69
2024/04/15 01:56:25;;;;;;;3.60;2.73;;;19.30;85.50;;;;;;5387408;26;20311;-68
2024/04/15 01:58:50;;;;;;;5.23;2.47;;;19.20;86.90;;;;;;5384600;26;20328;-68
2024/04/15 02:01:16;;;;;;;2.83;2.27;;;19.20;87.00;;;;;;5398142;26;20240;-68
2024/04/15 02:03:43;;;;;;;3.60;2.53;;;19.10;87.50;;;;;;5385334;26;20284;-68
2024/04/15 02:06:09;;;;;;;3.00;2.30;;;19.20;87.30;;;;;;5392689;26;20463;-68
2024/04/15 02:08:35;;;;;;;7.23;2.90;;;19.20;88.00;;;;;;5386400;26;20812;-68
2024/04/15 02:11:01;;;;;;;3.40;2.50;;;19.20;89.10;;;;;;5390596;26;20245;-68
2024/04/15 02:13:26;;;;;;;3.40;2.60;;;19.20;90.10;;;;;;5392516;26;20563;-68
2024/04/15 02:15:52;;;;;;;4.67;3.37;;;19.20;91.50;;;;;;5389023;26;20311;-67
2024/04/15 02:18:17;;;;;;;6.40;2.57;;;19.20;91.20;;;;;;5389653;26;20267;-68
2024/04/15 02:20:43;;;;;;;2.90;2.20;;;19.10;91.00;;;;;;5384257;26;20695;-68
2024/04/15 02:23:09;;;;;;;3.90;2.47;;;19.00;91.50;;;;;;5394670;26;20830;-68
2024/04/15 02:25:34;;;;;;;5.07;2.50;;;19.00;92.00;;;;;;5391379;26;20233;-68
2024/04/15 02:28:00;;;;;;;7.20;2.60;;;19.00;92.90;;;;;;5389601;26;20236;-68
2024/04/15 02:30:25;;;;;;;5.60;2.60;;;18.90;94.00;;;;;;5379935;26;20238;-68
2024/04/15 02:32:51;;;;;;;4.53;2.90;;;18.80;94.90;;;;;;5391610;26;20279;-68
2024/04/15 02:35:17;;;;;;;6.73;3.37;;;18.70;95.40;;;;;;5391927;26;20271;-67
2024/04/15 02:37:42;;;;;;;4.40;2.50;;;18.50;97.00;;;;;;5389322;26;20233;-67
2024/04/15 02:40:09;;;;;;;5.20;2.73;;;18.60;97.30;;;;;;5385169;26;20277;-67
2024/04/15 02:42:35;;;;;;;6.40;2.90;;;18.40;98.50;;;;;;5386108;26;20481;-67
2024/04/15 02:45:00;;;;;;;5.03;3.20;;;18.30;99.30;;;;;;5378788;26;20468;-67
2024/04/15 02:47:26;;;;;;;7.13;3.10;;;18.30;99.80;;;;;;5379220;26;20285;-68
2024/04/15 02:49:51;;;;;;;3.00;2.70;;;18.30;99.90;;;;;;5388375;26;20296;-68
2024/04/15 02:52:17;;;;;;;7.83;3.10;;;18.20;99.90;;;;;;5387519;26;20226;-68
2024/04/15 02:54:42;;;;;;;3.20;2.63;;;18.10;99.90;;;;;;5392557;26;20245;-68
2024/04/15 02:57:08;;;;;;;3.27;2.93;;;18.10;99.90;;;;;;5385798;26;20237;-68
2024/04/15 02:59:34;;;;;;;5.00;3.23;;;17.90;99.90;;;;;;5391559;26;20257;-68
2024/04/15 03:01:59;;;;;;;4.90;2.93;;;17.80;99.90;;;;;;5388202;26;20238;-68
2024/04/15 03:04:25;;;;;;;4.00;2.73;;;17.80;99.90;;;;;;5391257;26;20222;-68
2024/04/15 03:06:53;;;;;;;6.10;2.90;;;17.80;99.90;;;;;;5393068;26;20279;-68
2024/04/15 03:09:21;;;;;;;5.60;3.10;;;17.70;99.90;;;;;;5390148;26;20442;-68
2024/04/15 03:11:47;;;;;;;6.97;3.57;;;17.70;99.90;;;;;;5390916;26;20522;-68
2024/04/15 03:14:13;;;;;;;5.10;3.30;;;17.70;99.90;;;;;;5386899;26;22821;-67
2024/04/15 03:16:38;;;;;;;7.93;3.33;;;17.80;99.90;;;;;;5393285;26;20475;-69
2024/04/15 03:19:04;;;;;;;3.90;2.57;;;17.60;99.90;;;;;;5387381;26;20233;-68
2024/04/15 03:21:30;;;;;;;6.40;3.30;;;17.60;99.90;;;;;;5391151;26;20297;-68
2024/04/15 03:23:55;;;;;;;5.53;3.30;;;17.50;99.90;;;;;;5392511;26;20319;-68
2024/04/15 03:26:21;;;;;;;4.00;3.07;;;17.50;99.90;;;;;;5389541;26;20772;-68
2024/04/15 03:28:47;;;;;;;3.83;2.80;;;17.50;99.90;;;;;;5396398;26;20288;-68
2024/04/15 03:31:12;;;;;;;5.93;3.13;;;17.50;99.90;;;;;;5390904;26;20301;-68
2024/04/15 03:33:40;;;;;;;4.97;3.03;;;17.40;99.90;;;;;;5394511;26;20277;-69
2024/04/15 03:36:06;;;;;;;4.27;3.27;;;17.40;99.90;;;;;;5389440;26;20350;-68
2024/04/15 03:38:32;;;;;;;8.03;3.30;;;17.40;99.90;;;;;;5392322;26;20523;-68
2024/04/15 03:40:58;;;;;;;5.00;2.70;;;17.30;99.90;;;;;;5391023;26;20480;-68
2024/04/15 03:43:24;;;;;;;5.97;2.97;;;17.20;99.90;;;;;;5385319;26;20245;-68
2024/04/15 03:45:49;;;;;;;7.83;3.00;;;17.10;99.90;;;;;;5392721;26;20462;-68
2024/04/15 03:48:15;;;;;;;3.60;2.80;;;17.10;99.90;;;;;;5385718;26;20237;-68
2024/04/15 03:50:40;;;;;;;4.30;3.00;;;17.10;99.90;;;;;;5390083;26;20334;-68
2024/04/15 03:53:06;;;;;;;3.37;2.80;;;17.00;99.90;;;;;;5390300;26;20237;-68
2024/04/15 03:55:32;;;;;;;4.33;2.80;;;16.90;99.90;;;;;;5393374;26;20236;-68
2024/04/15 03:57:58;;;;;;;4.97;3.20;;;16.90;99.90;;;;;;5389902;26;20988;-68
2024/04/15 04:00:23;;;;;;;4.23;3.23;;;16.90;99.90;;;;;;5390625;26;20271;-68
2024/04/15 04:02:49;;;;;;;6.47;3.57;;;17.00;99.90;;;;;;5388264;26;20233;-68
2024/04/15 04:05:14;;;;;;;3.60;2.73;;;16.90;99.90;;;;;;5387294;26;20248;-69
2024/04/15 04:07:40;;;;;;;7.50;3.73;;;16.80;99.90;;;;;;5390458;26;20237;-68
2024/04/15 04:10:06;;;;;;;7.40;2.90;;;16.90;99.90;;;;;;5390491;26;20292;-68
2024/04/15 04:12:31;;;;;;;4.87;3.27;;;16.80;99.90;;;;;;5388124;26;20238;-68
2024/04/15 04:14:57;;;;;;;4.00;2.80;;;16.80;99.90;;;;;;5389209;26;20284;-68
2024/04/15 04:17:22;;;;;;;13.50;3.07;;;16.80;99.90;;;;;;5395839;26;20295;-68
2024/04/15 04:19:48;;;;;;;4.33;3.10;;;16.80;99.90;;;;;;5391250;26;20248;-68
2024/04/15 04:22:14;;;;;;;6.33;3.67;;;16.80;99.90;;;;;;5386811;26;20279;-68
2024/04/15 04:24:40;;;;;;;5.00;2.90;;;16.70;99.90;;;;;;5394641;26;20512;-68
2024/04/15 04:27:06;;;;;;;4.43;3.00;;;16.60;99.90;;;;;;5391216;26;20463;-68
2024/04/15 04:29:35;;;;;;;4.77;2.90;;;16.60;99.90;;;;;;5396850;26;20291;-68
2024/04/15 04:32:01;;;;;;;4.37;2.80;;;16.50;99.90;;;;;;5391107;26;20280;-68
2024/04/15 04:34:27;;;;;;;4.20;2.90;;;16.40;99.90;;;;;;5391755;26;20471;-68
2024/04/15 04:36:52;;;;;;;6.40;3.50;;;16.40;99.90;;;;;;5394135;26;20474;-68
2024/04/15 04:39:18;;;;;;;5.90;3.27;;;16.40;99.90;;;;;;5393901;26;20233;-68
2024/04/15 04:41:44;;;;;;;5.83;4.10;;;16.50;99.90;;;;;;5386262;26;20302;-70
2024/04/15 04:44:09;;;;;;;3.70;2.90;;;16.50;99.90;;;;;;5396079;26;20237;-68
2024/04/15 04:46:35;;;;;;;5.00;3.20;;;16.40;99.90;;;;;;5392868;26;20707;-68
2024/04/15 04:49:00;;;;;;;6.43;3.30;;;16.40;99.90;;;;;;5391198;26;20320;-68
2024/04/15 04:51:26;;;;;;;3.30;2.90;;;16.40;99.90;;;;;;5386920;26;20242;-68
2024/04/15 04:53:52;;;;;;;3.80;3.20;;;16.40;99.90;;;;;;5391404;26;20241;-68
2024/04/15 04:56:17;;;;;;;3.80;2.70;;;16.40;99.90;;;;;;5393153;26;21196;-69
2024/04/15 04:58:44;;;;;;;4.53;3.30;;;16.30;99.90;;;;;;5395113;26;20898;-68
2024/04/15 05:01:17;;;;;;;4.97;3.10;;;16.30;99.90;;;;;;5390933;26;20312;-68
2024/04/15 05:03:47;;;;;;;5.10;3.30;;;16.20;99.90;;;;;;5392170;26;20583;-68
2024/04/15 05:06:15;;;;;;;7.77;3.47;;;16.30;99.90;;;;;;5389471;26;20564;-68
2024/04/15 05:08:43;;;;;;;6.17;3.17;;;16.30;99.90;;;;;;5391878;26;20604;-67
2024/04/15 05:11:08;;;;;;;4.30;3.23;;;16.30;99.90;;;;;;5389912;26;20476;-70
2024/04/15 05:13:34;;;;;;;3.97;3.30;;;16.30;99.90;;;;;;5389825;26;21056;-68
2024/04/15 05:16:10;;;;;;;4.27;3.13;;;16.20;99.90;;;;;;5390312;26;20399;-67
2024/04/15 05:18:37;;;;;;;7.17;3.00;;;16.20;99.90;;;;;;5393567;26;20226;-67
2024/04/15 05:21:04;;;;;;;9.90;3.47;;;16.20;99.90;;;;;;5382161;26;20487;-68
2024/04/15 05:23:30;;;;;;;5.67;3.73;;;16.20;99.90;;;;;;5394656;26;20522;-68
2024/04/15 05:25:58;;;;;;;4.03;3.03;;;16.20;99.90;;;;;;5393089;26;20459;-68
2024/04/15 05:28:24;;;;;;;6.87;3.83;;;16.30;99.90;;;;;;5392509;26;20508;-67
2024/04/15 05:30:52;;;;;;;8.53;4.00;;;16.30;99.90;;;;;;5390862;26;20655;-68
2024/04/15 05:33:17;;;;;;;4.90;4.00;;;16.30;99.90;;;;;;5386701;26;20241;-68
2024/04/15 05:35:43;;;;;;;12.83;9.13;;;16.40;99.90;;;;;;5389913;26;20584;-69
2024/04/15 05:38:09;;;;;;;6.50;4.20;;;16.40;99.90;;;;;;5392401;26;20237;-69
2024/04/15 05:40:35;;;;;;;5.70;3.60;;;16.40;99.90;;;;;;5392335;26;20753;-69
2024/04/15 05:43:00;;;;;;;4.50;3.47;;;16.40;99.90;;;;;;5391878;26;20248;-69
2024/04/15 05:45:26;;;;;;;8.60;3.83;;;16.30;99.90;;;;;;5392795;26;20221;-69
2024/04/15 05:47:51;;;;;;;5.37;3.43;;;16.40;99.90;;;;;;5392914;26;20569;-69
2024/04/15 05:50:17;;;;;;;6.07;3.73;;;16.40;99.90;;;;;;5387424;26;20237;-68
2024/04/15 05:52:43;;;;;;;7.00;3.73;;;16.30;99.90;;;;;;5388579;26;20364;-68
2024/04/15 05:55:08;;;;;;;3.83;3.43;;;16.20;99.90;;;;;;5386958;26;20772;-68
2024/04/15 05:57:34;;;;;;;11.37;4.00;;;16.40;99.90;;;;;;5385152;26;20351;-68
2024/04/15 06:00:03;;;;;;;4.63;3.67;;;16.40;99.90;;;;;;5392528;26;20334;-68
2024/04/15 06:02:29;;;;;;;6.90;3.53;;;16.20;99.90;;;;;;5391367;26;20289;-68
2024/04/15 06:04:54;;;;;;;6.57;3.73;;;16.20;99.90;;;;;;5394274;26;20471;-68
2024/04/15 06:07:20;;;;;;;5.93;4.13;;;16.30;99.90;;;;;;5395123;26;20236;-68
2024/04/15 06:09:46;;;;;;;5.20;3.60;;;16.30;99.90;;;;;;5390803;26;20275;-68
2024/04/15 06:12:11;;;;;;;8.03;3.47;;;16.30;99.90;;;;;;5392091;26;20313;-67
2024/04/15 06:14:37;;;;;;;7.87;3.97;;;16.40;99.90;;;;;;5380086;26;20807;-67
2024/04/15 06:17:02;;;;;;;6.03;3.70;;;16.40;99.90;;;;;;5393235;26;20314;-68
2024/04/15 06:19:28;;;;;;;4.63;4.13;;;16.30;99.90;;;;;;5392391;26;20245;-70
2024/04/15 06:21:54;;;;;;;5.90;3.80;;;16.30;99.90;;;;;;5397096;26;20276;-67
2024/04/15 06:24:20;;;;;;;7.13;3.90;;;16.20;99.90;;;;;;5392601;26;20411;-67
2024/04/15 06:26:47;;;;;;;6.70;4.07;;;16.10;99.90;;;;;;5386552;26;20480;-67
2024/04/15 06:29:13;;;;;;;7.73;4.00;;;16.20;99.90;;;;;;5389886;26;20476;-68
2024/04/15 06:31:38;;;;;;;6.53;4.23;;;16.10;99.90;;;;;;5389035;26;20643;-68
2024/04/15 06:34:04;;;;;;;10.57;4.67;;;16.10;99.90;;;;;;5387701;26;20229;-68
2024/04/15 06:36:30;;;;;;;5.43;3.83;;;16.20;99.90;;;;;;5385214;26;20246;-68
2024/04/15 06:38:55;;;;;;;4.33;3.50;;;16.30;99.90;;;;;;5389794;26;20591;-68
2024/04/15 06:41:21;;;;;;;7.47;3.93;;;16.30;99.90;;;;;;5391376;26;20422;-67
2024/04/15 06:43:47;;;;;;;8.80;6.87;;;16.10;99.90;;;;;;5394709;26;20293;-68
2024/04/15 06:46:12;;;;;;;7.40;4.33;;;16.20;99.90;;;;;;5391374;26;20573;-68
2024/04/15 06:48:40;;;;;;;5.40;4.30;;;16.20;99.90;;;;;;5390926;26;20437;-68
2024/04/15 06:51:06;;;;;;;9.03;4.00;;;16.30;99.90;;;;;;5389104;26;20821;-69
2024/04/15 06:53:32;;;;;;;4.53;4.10;;;16.30;99.90;;;;;;5400312;26;20486;-68
2024/04/15 06:55:58;;;;;;;8.17;4.37;;;16.30;99.90;;;;;;5403747;26;20542;-68
2024/04/15 06:58:23;;;;;;;9.30;4.40;;;16.30;99.90;;;;;;5394168;26;20301;-68
2024/04/15 07:00:49;;;;;;;8.83;4.90;;;16.30;99.90;;;;;;5393543;26;20517;-69
2024/04/15 07:03:14;;;;;;;7.67;4.60;;;16.30;99.90;;;;;;5387162;26;20250;-68
2024/04/15 07:05:40;;;;;;;6.00;4.60;;;16.40;99.90;;;;;;5399555;26;20264;-68
2024/04/15 07:08:06;;;;;;;7.07;4.57;;;16.40;99.90;;;;;;5395153;26;20296;-68
2024/04/15 07:10:32;;;;;;;8.47;4.70;;;16.40;99.90;;;;;;5394361;26;20301;-68
2024/04/15 07:12:59;;;;;;;6.70;4.23;;;16.30;99.90;;;;;;5396840;26;20589;-68
2024/04/15 07:15:24;;;;;;;11.17;5.67;;;16.40;99.90;;;;;;5399773;26;21097;-68
2024/04/15 07:17:50;;;;;;;10.40;6.00;;;16.50;99.90;;;;;;5395501;26;20764;-68
2024/04/15 07:20:16;;;;;;;12.20;9.20;;;16.40;99.90;;;;;;5388088;26;20233;-68
2024/04/15 07:22:42;;;;;;;10.33;6.80;;;16.30;99.90;;;;;;5384644;26;20238;-67
2024/04/15 07:25:08;;;;;;;9.00;6.00;;;16.30;99.90;;;;;;5389905;26;20233;-67
2024/04/15 07:27:34;;;;;;;11.13;5.90;;;16.20;99.90;;;;;;5386192;26;20518;-67
2024/04/15 07:30:00;;;;;;;8.83;5.23;;;16.20;99.90;;;;;;5383844;26;20727;-68
2024/04/15 07:32:26;;;;;;;7.73;5.27;;;16.30;99.90;;;;;;5384004;26;23111;-67
2024/04/15 07:34:52;;;;;;;8.97;5.37;;;16.20;99.90;;;;;;5372360;26;21270;-67
2024/04/15 07:37:17;;;;;;;10.37;5.90;;;16.10;99.90;;;;;;5380528;26;20858;-67
2024/04/15 07:39:46;;;;;;;10.60;5.77;;;16.20;99.90;;;;;;5390329;26;20280;-68
2024/04/15 07:42:12;;;;;;;8.57;5.53;;;16.20;99.90;;;;;;5388055;26;20794;-68
2024/04/15 07:44:38;;;;;;;6.43;5.43;;;16.20;99.90;;;;;;5394290;26;20463;-68
2024/04/15 07:47:03;;;;;;;14.20;6.10;;;16.20;99.90;;;;;;5392903;26;20723;-67
2024/04/15 07:49:29;;;;;;;8.70;6.20;;;16.20;99.90;;;;;;5386660;26;20240;-68
2024/04/15 07:51:54;;;;;;;6.93;5.70;;;16.30;99.90;;;;;;5391698;26;20296;-68
2024/04/15 07:54:20;;;;;;;8.90;5.90;;;16.20;99.90;;;;;;5398361;26;20236;-68
2024/04/15 07:56:45;;;;;;;6.37;5.37;;;16.30;99.90;;;;;;5395099;26;20283;-69
2024/04/15 07:59:11;;;;;;;9.37;5.73;;;16.40;99.90;;;;;;5394598;26;20714;-68
2024/04/15 08:01:36;;;;;;;8.43;5.30;;;16.30;99.90;;;;;;5389454;26;20440;-68
2024/04/15 08:04:02;;;;;;;7.83;5.10;;;16.50;99.90;;;;;;5393166;26;20236;-68
2024/04/15 08:06:28;;;;;;;8.07;5.90;;;16.60;99.90;;;;;;5391637;26;20256;-69
2024/04/15 08:08:54;;;;;;;7.47;5.47;;;16.60;99.90;;;;;;5392998;26;20881;-68
2024/04/15 08:11:19;;;;;;;6.67;5.43;;;16.70;99.90;;;;;;5635304;21;20293;-68
2024/04/15 08:13:45;;;;;;;6.37;5.30;;;16.80;99.90;;;;;;5474691;26;20519;-69
2024/04/15 08:16:10;;;;;;;8.67;4.87;;;17.00;99.90;;;;;;5461454;26;20300;-69
2024/04/15 08:18:37;;;;;;;8.40;5.00;;;16.90;99.90;;;;;;5467775;26;20284;-68
2024/04/15 08:21:03;;;;;;;8.03;5.10;;;17.00;99.90;;;;;;5466324;26;20254;-68
2024/04/15 08:23:28;;;;;;;7.13;5.00;;;17.00;99.90;;;;;;5450121;26;20726;-69
2024/04/15 08:25:55;;;;;;;5.97;5.00;;;17.10;99.90;;;;;;5456776;26;20274;-68
2024/04/15 08:28:21;;;;;;;6.80;5.00;;;17.10;99.90;;;;;;5460955;26;20799;-68
2024/04/15 08:30:46;;;;;;;5.20;4.70;;;17.10;99.90;;;;;;5456387;26;21115;-68
2024/04/15 08:33:13;;;;;;;5.87;5.03;;;17.20;99.90;;;;;;5468644;26;20552;-68
2024/04/15 08:35:39;;;;;;;8.13;5.20;;;17.30;99.90;;;;;;5461961;26;20679;-68
2024/04/15 08:38:06;;;;;;;7.93;5.40;;;17.40;99.90;;;;;;5461065;26;20465;-68
2024/04/15 08:40:32;;;;;;;6.07;4.27;;;17.30;99.90;;;;;;5464919;26;20790;-68
2024/04/15 08:43:01;;;;;;;5.50;4.57;;;17.20;99.90;;;;;;5461001;26;20505;-68
2024/04/15 08:45:29;;;;;;;8.63;4.70;;;17.20;99.90;;;;;;5463352;26;20811;-68
2024/04/15 08:47:56;;;;;;;9.57;5.17;;;17.30;99.90;;;;;;5456325;26;20601;-67
2024/04/15 08:50:24;;;;;;;8.90;5.70;;;17.30;99.90;;;;;;5465284;26;21076;-67
2024/04/15 08:52:52;;;;;;;6.50;5.00;;;17.40;99.90;;;;;;5462855;26;20456;-67
2024/04/15 08:55:18;;;;;;;7.70;4.47;;;17.40;99.90;;;;;;5463257;26;20515;-67
2024/04/15 08:57:48;;;;;;;8.57;5.93;;;17.50;99.90;;;;;;5455414;26;20517;-67
2024/04/15 09:00:21;;;;;;;7.63;4.80;;;17.60;99.90;;;;;;5457114;26;20462;-68
2024/04/15 09:02:50;;;;;;;8.83;4.90;;;17.70;99.90;;;;;;5463740;26;23423;-68
2024/04/15 09:05:17;;;;;;;9.20;5.00;;;17.70;99.90;;;;;;5448787;26;20954;-67
2024/04/15 09:07:44;;;;;;;9.63;5.03;;;17.60;99.90;;;;;;5467109;26;20507;-67
2024/04/15 09:10:11;;;;;;;5.53;4.77;;;17.60;99.90;;;;;;5456988;26;20857;-68
2024/04/15 09:12:43;;;;;;;5.30;4.40;;;17.70;99.90;;;;;;5461869;26;20572;-68
2024/04/15 09:15:11;;;;;;;8.53;4.67;;;17.70;99.90;;;;;;5454022;26;20454;-68
2024/04/15 09:17:37;;;;;;;8.10;4.10;;;17.50;99.90;;;;;;5457672;26;20597;-67
2024/04/15 09:20:03;;;;;;;8.03;4.50;;;17.40;99.90;;;;;;5467664;26;20505;-68
2024/04/15 09:22:30;;;;;;;6.23;3.60;;;17.50;99.90;;;;;;5452143;26;20511;-68
2024/04/15 09:24:55;;;;;;;7.90;4.07;;;17.60;99.90;;;;;;5463352;26;20460;-68
2024/04/15 09:27:24;;;;;;;8.40;3.90;;;17.60;99.90;;;;;;5432493;26;20831;-67
2024/04/15 09:29:50;;;;;;;7.73;4.10;;;17.70;99.90;;;;;;5461883;26;20239;-68
2024/04/15 09:32:16;;;;;;;6.93;3.70;;;17.60;99.90;;;;;;5457935;26;20460;-68
2024/04/15 09:34:41;;;;;;;6.50;4.00;;;17.50;99.90;;;;;;5458846;26;20515;-68
2024/04/15 09:37:08;;;;;;;10.47;5.10;;;17.50;99.90;;;;;;5459017;26;20315;-67
2024/04/15 09:39:36;;;;;;;7.23;4.17;;;17.50;99.90;;;;;;5439111;26;20573;-67
2024/04/15 09:42:02;;;;;;;9.17;4.40;;;17.70;99.90;;;;;;5472576;26;20468;-67
2024/04/15 09:44:29;;;;;;;9.40;4.67;;;17.70;99.90;;;;;;5467721;26;21064;-69
2024/04/15 09:46:56;;;;;;;8.20;4.83;;;17.70;99.90;;;;;;5455774;26;20518;-68
2024/04/15 09:49:21;;;;;;;6.53;4.00;;;17.80;99.90;;;;;;5432561;26;20505;-67
2024/04/15 09:51:51;;;;;;;5.40;4.23;;;17.70;99.90;;;;;;5460405;26;20460;-68
2024/04/15 09:54:30;;;;;;;6.27;4.37;;;17.80;99.90;;;;;;5467617;26;20577;-68
2024/04/15 09:57:01;;;;;;;7.57;5.10;;;17.70;99.90;;;;;;5461924;26;20516;-67
2024/04/15 09:59:32;;;;;;;5.43;4.30;;;17.80;99.90;;;;;;5463664;26;20468;-67
2024/04/15 10:02:04;;;;;;;6.40;5.17;;;17.80;99.90;;;;;;5465747;26;21267;-67
2024/04/15 10:04:33;;;;;;;5.60;4.70;;;17.90;99.90;;;;;;5427686;26;21124;-67
2024/04/15 10:07:03;;;;;;;5.33;4.43;;;17.90;99.90;;;;;;5467204;26;20504;-68
2024/04/15 10:09:29;;;;;;;5.77;4.50;;;17.90;99.90;;;;;;5457013;26;20545;-67
2024/04/15 10:11:55;;;;;;;5.43;4.50;;;17.80;99.90;;;;;;5458732;26;20509;-68
2024/04/15 10:14:21;;;;;;;8.47;4.17;;;17.70;99.90;;;;;;5456618;26;20462;-68
2024/04/15 10:16:48;;;;;;;6.00;4.60;;;17.80;99.90;;;;;;5464762;26;20457;-68
2024/04/15 10:19:23;;;;;;;13.83;4.80;;;17.60;99.90;;;;;;5459912;26;21055;-67
2024/04/15 10:21:48;;;;;;;7.27;4.97;;;17.60;99.90;;;;;;5461197;26;20981;-67
2024/04/15 10:24:14;;;;;;;6.20;4.80;;;17.40;99.90;;;;;;5460865;26;20573;-67
2024/04/15 10:26:42;;;;;;;10.57;5.30;;;17.50;99.90;;;;;;5459664;26;20277;-68
2024/04/15 10:29:27;;;;;;;10.17;5.70;;;17.40;99.90;;;;;;5457238;26;20229;-67
2024/04/15 10:31:56;;;;;;;6.30;4.80;;;17.40;99.90;;;;;;5459203;26;20520;-67
2024/04/15 10:34:27;;;;;;;6.23;4.67;;;17.50;99.90;;;;;;5464531;26;20477;-67
2024/04/15 10:36:54;;;;;;;6.40;5.13;;;17.70;99.90;;;;;;5468183;26;20504;-67
2024/04/15 10:39:22;;;;;;;9.80;4.70;;;17.90;99.90;;;;;;5470152;26;20494;-67
2024/04/15 10:41:48;;;;;;;7.33;4.47;;;17.90;99.90;;;;;;5466118;26;20523;-68
2024/04/15 10:44:14;;;;;;;7.20;5.20;;;18.10;99.90;;;;;;5467451;26;20469;-67
2024/04/15 10:46:44;;;;;;;6.40;4.10;;;18.10;99.90;;;;;;5469476;26;20516;-67
2024/04/15 10:49:10;;;;;;;8.00;4.50;;;18.20;99.90;;;;;;5469160;26;20244;-67
2024/04/15 10:51:36;;;;;;;6.60;4.63;;;18.30;99.90;;;;;;5461223;26;20464;-67
2024/04/15 10:54:02;;;;;;;10.30;4.97;;;18.50;99.90;;;;;;5463649;26;20462;-67
2024/04/15 10:56:28;;;;;;;6.37;5.17;;;18.80;99.90;;;;;;5468471;26;20814;-67
2024/04/15 10:58:53;;;;;;;6.80;4.83;;;18.90;99.90;;;;;;5454360;26;20762;-68
2024/04/15 11:01:19;;;;;;;7.57;4.13;;;18.90;99.90;;;;;;5453601;26;20290;-68
2024/04/15 11:03:46;;;;;;;5.77;4.40;;;18.70;99.90;;;;;;5465763;26;20223;-68
2024/04/15 11:06:15;;;;;;;19.07;5.37;;;18.50;99.90;;;;;;5465779;26;20239;-67
2024/04/15 11:08:41;;;;;;;6.60;4.90;;;18.30;99.90;;;;;;5460394;26;20512;-67
2024/04/15 11:11:10;;;;;;;6.27;4.33;;;18.30;99.90;;;;;;5460096;26;20460;-67
2024/04/15 11:13:38;;;;;;;7.93;4.13;;;18.10;99.90;;;;;;5466929;26;20273;-67
2024/04/15 11:16:04;;;;;;;6.33;4.57;;;17.80;99.90;;;;;;5470606;26;20475;-68
2024/04/15 11:18:30;;;;;;;6.90;4.10;;;17.70;99.90;;;;;;5458707;26;21039;-67
2024/04/15 11:20:59;;;;;;;7.23;4.10;;;17.70;99.90;;;;;;5454449;26;20456;-67
2024/04/15 11:23:25;;;;;;;7.80;4.50;;;17.80;99.90;;;;;;5458350;26;20231;-67
2024/04/15 11:25:52;;;;;;;5.60;4.03;;;17.90;99.90;;;;;;5462951;26;20464;-67
2024/04/15 11:28:19;;;;;;;7.60;4.03;;;17.90;99.90;;;;;;5458019;26;20239;-68
2024/04/15 11:30:45;;;;;;;4.87;3.70;;;18.00;99.90;;;;;;5455195;26;20537;-68
2024/04/15 11:33:12;;;;;;;6.23;3.93;;;18.10;99.90;;;;;;5460322;26;20484;-68
2024/04/15 11:35:48;;;;;;;5.73;3.40;;;18.20;99.90;;;;;;5451886;26;20519;-68
2024/04/15 11:38:14;;;;;;;6.40;3.40;;;18.00;99.90;;;;;;5429677;26;20505;-68
2024/04/15 11:40:40;;;;;;;9.70;4.00;;;18.10;99.90;;;;;;5452989;26;20461;-68
2024/04/15 11:43:06;;;;;;;9.30;3.80;;;18.20;99.90;;;;;;5457239;26;20762;-68
2024/04/15 11:45:32;;;;;;;8.60;3.40;;;18.30;99.90;;;;;;5453801;26;20468;-68
2024/04/15 11:47:58;;;;;;;6.10;3.87;;;18.10;99.90;;;;;;5461000;26;20521;-68
2024/04/15 11:50:24;;;;;;;5.90;3.17;;;18.20;99.90;;;;;;5460660;26;20231;-68
2024/04/15 11:52:50;;;;;;;4.87;3.30;;;18.50;99.90;;;;;;5455908;26;20246;-67
2024/04/15 11:55:16;;;;;;;3.50;3.20;;;18.60;99.90;;;;;;5462188;26;20835;-68
2024/04/15 11:57:43;;;;;;;4.03;3.03;;;18.80;99.90;;;;;;5451678;26;20248;-67
2024/04/15 12:00:10;;;;;;;6.37;3.30;;;18.90;99.90;;;;;;5457781;26;21422;-68
2024/04/15 12:02:43;;;;;;;4.83;3.20;;;19.10;99.90;;;;;;5403808;26;21049;-69
2024/04/15 12:05:11;;;;;;;4.50;3.37;;;19.60;99.90;;;;;;5465066;26;20530;-69
2024/04/15 12:07:41;;;;;;;6.57;2.90;;;20.60;99.90;;;;;;5461595;26;20511;-69
2024/04/15 12:10:07;;;;;;;5.30;3.20;;;21.60;99.90;;;;;;5459523;26;21079;-68
2024/04/15 12:12:33;;;;;;;5.77;3.20;;;22.10;99.10;;;;;;5455173;26;20514;-68
2024/04/15 12:14:59;;;;;;;16.63;3.53;;;22.60;97.70;;;;;;5470058;26;20223;-68
2024/04/15 12:17:25;;;;;;;4.50;3.10;;;22.90;96.60;;;;;;5456241;26;20232;-68
2024/04/15 12:19:50;;;;;;;6.37;4.40;;;22.70;95.00;;;;;;5459271;26;20809;-68
2024/04/15 12:22:16;;;;;;;6.37;3.13;;;22.70;94.30;;;;;;5457899;26;20464;-69
2024/04/15 12:24:41;;;;;;;5.20;2.90;;;22.40;93.90;;;;;;5451757;26;21160;-69
2024/04/15 12:27:07;;;;;;;4.67;2.70;;;22.90;93.70;;;;;;5466613;26;20336;-69
2024/04/15 12:29:33;;;;;;;3.20;2.40;;;23.30;92.50;;;;;;5425335;26;20628;-69
2024/04/15 12:31:58;;;;;;;4.27;2.70;;;22.90;90.80;;;;;;5879008;20;20351;-68
2024/04/15 12:34:24;;;;;;;7.57;3.00;;;22.90;90.20;;;;;;5359821;26;20658;-68
2024/04/15 12:36:50;;;;;;;4.43;2.50;;;22.70;84.40;;;;;;5362088;26;20282;-68
2024/04/15 12:39:15;;;;;;;6.80;3.00;;;22.70;83.00;;;;;;5362965;26;20462;-68
2024/04/15 12:41:43;;;;;;;4.90;2.90;;;22.50;82.60;;;;;;5346389;26;20238;-68